sensor_id;sensor_type;location;lat;lon;timestamp;pressure;altitude;pressure_sealevel;temperature;humidity
73332;BME280;61560;33.718;73.040;2023-05-23T00:01:47;94236.34;;;29.85;37.63
73332;BME280;61560;33.718;73.040;2023-05-23T00:04:14;94243.13;;;29.82;38.11
73332;BME280;61560;33.718;73.040;2023-05-23T00:06:44;94241.03;;;29.82;36.64
73332;BME280;61560;33.718;73.040;2023-05-23T00:09:16;94239.72;;;29.83;36.95
73332;BME280;61560;33.718;73.040;2023-05-23T00:11:43;94246.66;;;29.82;37.21
73332;BME280;61560;33.718;73.040;2023-05-23T00:14:14;94251.78;;;29.84;37.48
73332;BME280;61560;33.718;73.040;2023-05-23T00:16:42;94255.56;;;29.86;37.36
73332;BME280;61560;33.718;73.040;2023-05-23T00:19:11;94256.19;;;29.92;36.67
73332;BME280;61560;33.718;73.040;2023-05-23T00:21:41;94257.47;;;29.91;36.76
73332;BME280;61560;33.718;73.040;2023-05-23T00:24:14;94258.03;;;29.90;37.01
73332;BME280;61560;33.718;73.040;2023-05-23T00:26:44;94251.06;;;29.91;36.63
73332;BME280;61560;33.718;73.040;2023-05-23T00:29:11;94259.75;;;29.93;36.78
73332;BME280;61560;33.718;73.040;2023-05-23T00:31:43;94272.00;;;29.96;35.99
73332;BME280;61560;33.718;73.040;2023-05-23T00:34:16;94269.38;;;29.98;33.99
73332;BME280;61560;33.718;73.040;2023-05-23T00:36:45;94268.97;;;29.93;33.59
73332;BME280;61560;33.718;73.040;2023-05-23T00:39:16;94269.91;;;29.88;34.31
73332;BME280;61560;33.718;73.040;2023-05-23T00:41:48;94268.16;;;29.85;35.29
73332;BME280;61560;33.718;73.040;2023-05-23T00:44:15;94267.41;;;29.85;34.61
73332;BME280;61560;33.718;73.040;2023-05-23T00:46:44;94272.50;;;29.86;34.71
73332;BME280;61560;33.718;73.040;2023-05-23T00:49:11;94264.66;;;29.92;34.63
73332;BME280;61560;33.718;73.040;2023-05-23T00:51:39;94272.00;;;29.96;34.01
73332;BME280;61560;33.718;73.040;2023-05-23T00:54:08;94282.94;;;29.99;33.37
73332;BME280;61560;33.718;73.040;2023-05-23T00:56:37;94290.13;;;30.00;33.50
73332;BME280;61560;33.718;73.040;2023-05-23T00:59:05;94305.22;;;30.03;33.46
73332;BME280;61560;33.718;73.040;2023-05-23T01:01:33;94296.34;;;29.99;33.27
73332;BME280;61560;33.718;73.040;2023-05-23T01:04:03;94302.19;;;30.01;33.09
73332;BME280;61560;33.718;73.040;2023-05-23T01:06:30;94308.31;;;30.12;32.54
73332;BME280;61560;33.718;73.040;2023-05-23T01:08:59;94319.81;;;30.14;32.87
73332;BME280;61560;33.718;73.040;2023-05-23T01:14:15;94334.69;;;30.15;34.62
73332;BME280;61560;33.718;73.040;2023-05-23T01:16:48;94350.88;;;30.14;35.17
73332;BME280;61560;33.718;73.040;2023-05-23T01:25:22;94356.28;;;30.05;35.03
73332;BME280;61560;33.718;73.040;2023-05-23T01:27:54;94358.19;;;30.10;34.97
73332;BME280;61560;33.718;73.040;2023-05-23T01:30:24;94361.22;;;30.12;35.35
73332;BME280;61560;33.718;73.040;2023-05-23T01:32:54;94367.97;;;30.09;36.88
73332;BME280;61560;33.718;73.040;2023-05-23T01:35:24;94371.22;;;30.13;36.82
73332;BME280;61560;33.718;73.040;2023-05-23T01:37:55;94361.09;;;30.17;37.45
73332;BME280;61560;33.718;73.040;2023-05-23T01:40:24;94392.59;;;30.21;36.27
73332;BME280;61560;33.718;73.040;2023-05-23T01:42:53;94362.44;;;30.24;36.51
73332;BME280;61560;33.718;73.040;2023-05-23T01:45:21;94332.53;;;30.28;36.38
73332;BME280;61560;33.718;73.040;2023-05-23T01:47:50;94327.44;;;30.27;36.40
73332;BME280;61560;33.718;73.040;2023-05-23T01:50:17;94317.63;;;30.28;35.74
73332;BME280;61560;33.718;73.040;2023-05-23T01:52:45;94332.13;;;30.24;36.43
73332;BME280;61560;33.718;73.040;2023-05-23T01:55:15;94333.09;;;30.27;36.09
73332;BME280;61560;33.718;73.040;2023-05-23T01:57:54;94328.94;;;30.28;35.25
73332;BME280;61560;33.718;73.040;2023-05-23T02:00:22;94323.66;;;30.24;35.72
73332;BME280;61560;33.718;73.040;2023-05-23T02:02:49;94337.66;;;30.30;36.38
73332;BME280;61560;33.718;73.040;2023-05-23T02:05:17;94346.53;;;30.34;35.72
73332;BME280;61560;33.718;73.040;2023-05-23T02:07:44;94355.84;;;30.42;35.68
73332;BME280;61560;33.718;73.040;2023-05-23T02:10:16;94339.19;;;30.59;33.11
73332;BME280;61560;33.718;73.040;2023-05-23T02:12:43;94345.03;;;30.89;33.30
73332;BME280;61560;33.718;73.040;2023-05-23T02:15:10;94342.91;;;31.54;31.85
73332;BME280;61560;33.718;73.040;2023-05-23T02:17:37;94333.41;;;32.09;31.83
73332;BME280;61560;33.718;73.040;2023-05-23T02:20:06;94323.38;;;32.31;32.26
73332;BME280;61560;33.718;73.040;2023-05-23T02:22:34;94326.78;;;32.60;32.56
73332;BME280;61560;33.718;73.040;2023-05-23T02:25:01;94322.97;;;32.80;32.76
73332;BME280;61560;33.718;73.040;2023-05-23T02:27:28;94327.78;;;33.17;32.24
73332;BME280;61560;33.718;73.040;2023-05-23T02:29:55;94322.75;;;33.55;32.14
73332;BME280;61560;33.718;73.040;2023-05-23T02:32:22;94322.09;;;33.72;30.49
73332;BME280;61560;33.718;73.040;2023-05-23T02:34:50;94329.13;;;34.03;30.05
73332;BME280;61560;33.718;73.040;2023-05-23T02:37:17;94320.97;;;34.00;29.37
73332;BME280;61560;33.718;73.040;2023-05-23T02:39:44;94323.00;;;34.07;28.84
73332;BME280;61560;33.718;73.040;2023-05-23T02:42:11;94323.38;;;34.11;28.88
73332;BME280;61560;33.718;73.040;2023-05-23T02:44:38;94320.16;;;34.31;29.48
73332;BME280;61560;33.718;73.040;2023-05-23T02:47:05;94327.19;;;34.55;29.07
73332;BME280;61560;33.718;73.040;2023-05-23T02:49:33;94308.72;;;34.63;28.61
73332;BME280;61560;33.718;73.040;2023-05-23T02:52:00;94309.72;;;34.58;28.33
73332;BME280;61560;33.718;73.040;2023-05-23T02:54:27;94316.09;;;34.42;27.40
73332;BME280;61560;33.718;73.040;2023-05-23T02:56:54;94310.28;;;34.32;28.76
73332;BME280;61560;33.718;73.040;2023-05-23T02:59:22;94318.69;;;34.47;27.58
73332;BME280;61560;33.718;73.040;2023-05-23T03:01:49;94317.59;;;34.43;27.68
73332;BME280;61560;33.718;73.040;2023-05-23T03:04:16;94300.78;;;34.37;29.08
73332;BME280;61560;33.718;73.040;2023-05-23T03:06:43;94302.28;;;34.38;28.19
73332;BME280;61560;33.718;73.040;2023-05-23T03:09:14;94291.47;;;34.37;28.98
73332;BME280;61560;33.718;73.040;2023-05-23T03:11:42;94299.22;;;34.44;29.32
73332;BME280;61560;33.718;73.040;2023-05-23T03:14:10;94290.19;;;34.55;29.31
73332;BME280;61560;33.718;73.040;2023-05-23T03:16:37;94286.72;;;34.81;29.55
73332;BME280;61560;33.718;73.040;2023-05-23T03:19:05;94294.44;;;35.05;29.23
73332;BME280;61560;33.718;73.040;2023-05-23T03:21:31;94287.72;;;35.27;28.56
73332;BME280;61560;33.718;73.040;2023-05-23T03:24:01;94290.94;;;35.41;28.19
73332;BME280;61560;33.718;73.040;2023-05-23T03:26:29;94283.66;;;35.65;28.59
73332;BME280;61560;33.718;73.040;2023-05-23T03:28:56;94276.91;;;35.96;27.41
73332;BME280;61560;33.718;73.040;2023-05-23T03:31:23;94280.38;;;35.95;27.89
73332;BME280;61560;33.718;73.040;2023-05-23T03:33:50;94286.84;;;36.05;27.49
73332;BME280;61560;33.718;73.040;2023-05-23T03:36:17;94281.84;;;36.32;27.34
73332;BME280;61560;33.718;73.040;2023-05-23T03:38:44;94289.59;;;36.49;27.21
73332;BME280;61560;33.718;73.040;2023-05-23T03:41:11;94289.00;;;36.50;26.77
73332;BME280;61560;33.718;73.040;2023-05-23T03:43:38;94298.69;;;36.38;26.75
73332;BME280;61560;33.718;73.040;2023-05-23T03:46:06;94303.59;;;36.18;26.29
73332;BME280;61560;33.718;73.040;2023-05-23T03:48:33;94298.41;;;35.80;27.08
73332;BME280;61560;33.718;73.040;2023-05-23T03:51:00;94290.19;;;35.58;27.82
73332;BME280;61560;33.718;73.040;2023-05-23T03:53:28;94298.69;;;35.75;28.87
73332;BME280;61560;33.718;73.040;2023-05-23T03:55:54;94302.69;;;36.71;28.17
73332;BME280;61560;33.718;73.040;2023-05-23T03:58:22;94303.47;;;37.96;26.78
73332;BME280;61560;33.718;73.040;2023-05-23T04:00:52;94297.38;;;38.82;24.82
73332;BME280;61560;33.718;73.040;2023-05-23T04:03:21;94288.72;;;39.12;23.84
73332;BME280;61560;33.718;73.040;2023-05-23T04:05:49;94294.31;;;39.97;22.93
73332;BME280;61560;33.718;73.040;2023-05-23T04:08:17;94286.59;;;41.04;22.25
73332;BME280;61560;33.718;73.040;2023-05-23T04:10:49;94291.97;;;42.08;21.79
73332;BME280;61560;33.718;73.040;2023-05-23T04:13:16;94292.81;;;42.76;21.05
73332;BME280;61560;33.718;73.040;2023-05-23T04:15:43;94293.25;;;43.25;20.11
73332;BME280;61560;33.718;73.040;2023-05-23T04:18:11;94278.75;;;43.66;19.33
73332;BME280;61560;33.718;73.040;2023-05-23T04:20:40;94278.50;;;44.05;18.04
73332;BME280;61560;33.718;73.040;2023-05-23T04:23:07;94268.25;;;44.17;17.97
73332;BME280;61560;33.718;73.040;2023-05-23T04:25:38;94275.31;;;44.14;17.80
73332;BME280;61560;33.718;73.040;2023-05-23T04:28:18;94274.31;;;44.23;17.83
73332;BME280;61560;33.718;73.040;2023-05-23T04:30:45;94268.38;;;44.50;19.42
73332;BME280;61560;33.718;73.040;2023-05-23T04:33:17;94277.44;;;44.58;19.36
73332;BME280;61560;33.718;73.040;2023-05-23T04:35:44;94272.00;;;44.66;20.13
73332;BME280;61560;33.718;73.040;2023-05-23T04:38:12;94274.44;;;44.41;19.32
73332;BME280;61560;33.718;73.040;2023-05-23T04:40:39;94276.50;;;44.54;19.67
73332;BME280;61560;33.718;73.040;2023-05-23T04:43:25;94284.19;;;44.65;17.83
73332;BME280;61560;33.718;73.040;2023-05-23T04:46:05;94280.56;;;44.49;17.24
73332;BME280;61560;33.718;73.040;2023-05-23T04:48:36;94286.28;;;44.47;17.63
73332;BME280;61560;33.718;73.040;2023-05-23T04:51:04;94284.94;;;43.89;18.57
73332;BME280;61560;33.718;73.040;2023-05-23T04:53:38;94284.69;;;43.41;19.14
73332;BME280;61560;33.718;73.040;2023-05-23T04:56:06;94286.75;;;42.97;19.10
73332;BME280;61560;33.718;73.040;2023-05-23T04:58:36;94283.25;;;42.85;18.95
73332;BME280;61560;33.718;73.040;2023-05-23T05:01:06;94278.13;;;43.54;17.78
73332;BME280;61560;33.718;73.040;2023-05-23T05:03:35;94283.03;;;43.51;17.37
73332;BME280;61560;33.718;73.040;2023-05-23T05:06:02;94274.25;;;42.79;18.94
73332;BME280;61560;33.718;73.040;2023-05-23T05:08:31;94272.44;;;42.06;19.35
73332;BME280;61560;33.718;73.040;2023-05-23T05:10:58;94273.09;;;41.54;18.53
73332;BME280;61560;33.718;73.040;2023-05-23T05:13:26;94264.97;;;41.26;18.62
73332;BME280;61560;33.718;73.040;2023-05-23T05:15:55;94263.47;;;41.13;18.56
73332;BME280;61560;33.718;73.040;2023-05-23T05:18:27;94265.91;;;41.30;18.44
73332;BME280;61560;33.718;73.040;2023-05-23T05:20:56;94257.94;;;41.17;18.14
73332;BME280;61560;33.718;73.040;2023-05-23T05:23:25;94254.00;;;41.73;18.04
73332;BME280;61560;33.718;73.040;2023-05-23T05:25:56;94254.13;;;41.75;18.36
73332;BME280;61560;33.718;73.040;2023-05-23T05:28:23;94247.59;;;41.24;19.00
73332;BME280;61560;33.718;73.040;2023-05-23T05:30:51;94245.47;;;41.13;19.16
73332;BME280;61560;33.718;73.040;2023-05-23T05:33:23;94245.22;;;41.45;19.05
73332;BME280;61560;33.718;73.040;2023-05-23T05:35:57;94247.41;;;41.84;18.37
73332;BME280;61560;33.718;73.040;2023-05-23T05:38:25;94245.03;;;41.67;17.69
73332;BME280;61560;33.718;73.040;2023-05-23T05:40:52;94246.69;;;41.21;17.68
73332;BME280;61560;33.718;73.040;2023-05-23T05:43:20;94246.63;;;40.96;18.36
73332;BME280;61560;33.718;73.040;2023-05-23T05:45:47;94239.91;;;41.28;17.80
73332;BME280;61560;33.718;73.040;2023-05-23T05:48:15;94245.56;;;41.51;17.79
73332;BME280;61560;33.718;73.040;2023-05-23T05:50:42;94239.09;;;41.76;17.58
73332;BME280;61560;33.718;73.040;2023-05-23T05:53:13;94241.16;;;41.87;17.08
73332;BME280;61560;33.718;73.040;2023-05-23T05:55:40;94239.88;;;41.65;16.80
73332;BME280;61560;33.718;73.040;2023-05-23T05:58:07;94231.09;;;41.49;17.49
73332;BME280;61560;33.718;73.040;2023-05-23T06:00:47;94234.25;;;41.67;17.50
73332;BME280;61560;33.718;73.040;2023-05-23T06:03:15;94235.94;;;41.97;16.88
73332;BME280;61560;33.718;73.040;2023-05-23T06:05:49;94237.94;;;42.20;16.60
73332;BME280;61560;33.718;73.040;2023-05-23T06:08:16;94230.88;;;42.23;16.14
73332;BME280;61560;33.718;73.040;2023-05-23T06:10:43;94223.34;;;41.91;16.44
73332;BME280;61560;33.718;73.040;2023-05-23T06:13:10;94232.06;;;41.54;17.14
73332;BME280;61560;33.718;73.040;2023-05-23T06:15:38;94224.72;;;41.26;17.47
73332;BME280;61560;33.718;73.040;2023-05-23T06:18:05;94231.88;;;41.02;18.36
73332;BME280;61560;33.718;73.040;2023-05-23T06:20:32;94224.31;;;40.83;17.39
73332;BME280;61560;33.718;73.040;2023-05-23T06:23:02;94227.94;;;40.60;17.89
73332;BME280;61560;33.718;73.040;2023-05-23T06:25:31;94223.47;;;40.34;17.88
73332;BME280;61560;33.718;73.040;2023-05-23T06:27:58;94222.88;;;40.13;18.10
73332;BME280;61560;33.718;73.040;2023-05-23T06:30:26;94217.72;;;39.99;18.35
73332;BME280;61560;33.718;73.040;2023-05-23T06:32:54;94210.38;;;40.08;18.85
73332;BME280;61560;33.718;73.040;2023-05-23T06:35:21;94215.50;;;40.44;18.24
73332;BME280;61560;33.718;73.040;2023-05-23T06:37:48;94210.69;;;40.83;17.90
73332;BME280;61560;33.718;73.040;2023-05-23T06:40:17;94212.81;;;41.20;16.80
73332;BME280;61560;33.718;73.040;2023-05-23T06:42:44;94211.28;;;41.55;16.67
73332;BME280;61560;33.718;73.040;2023-05-23T06:45:37;94199.50;;;42.02;16.71
73332;BME280;61560;33.718;73.040;2023-05-23T06:48:05;94208.84;;;41.89;15.96
73332;BME280;61560;33.718;73.040;2023-05-23T06:50:34;94200.13;;;41.36;16.37
73332;BME280;61560;33.718;73.040;2023-05-23T06:53:02;94191.94;;;40.94;16.18
73332;BME280;61560;33.718;73.040;2023-05-23T06:55:29;94198.47;;;40.71;16.31
73332;BME280;61560;33.718;73.040;2023-05-23T06:58:01;94199.38;;;40.51;16.75
73332;BME280;61560;33.718;73.040;2023-05-23T07:00:30;94193.53;;;40.37;17.72
73332;BME280;61560;33.718;73.040;2023-05-23T07:03:17;94196.41;;;40.14;18.31
73332;BME280;61560;33.718;73.040;2023-05-23T07:05:44;94195.41;;;39.98;18.87
73332;BME280;61560;33.718;73.040;2023-05-23T07:08:11;94194.38;;;39.82;19.53
73332;BME280;61560;33.718;73.040;2023-05-23T07:10:43;94197.47;;;39.63;17.95
73332;BME280;61560;33.718;73.040;2023-05-23T07:13:26;94197.13;;;39.36;18.26
73332;BME280;61560;33.718;73.040;2023-05-23T07:15:54;94194.50;;;39.40;19.50
73332;BME280;61560;33.718;73.040;2023-05-23T07:18:21;94185.97;;;39.51;19.57
73332;BME280;61560;33.718;73.040;2023-05-23T07:20:48;94189.97;;;39.58;19.60
73332;BME280;61560;33.718;73.040;2023-05-23T07:23:18;94181.94;;;39.45;18.86
73332;BME280;61560;33.718;73.040;2023-05-23T07:25:47;94189.72;;;39.21;19.36
73332;BME280;61560;33.718;73.040;2023-05-23T07:28:23;94203.25;;;38.88;19.95
73332;BME280;61560;33.718;73.040;2023-05-23T07:30:51;94217.63;;;38.67;20.15
73332;BME280;61560;33.718;73.040;2023-05-23T07:33:18;94220.94;;;38.32;20.13
73332;BME280;61560;33.718;73.040;2023-05-23T07:35:47;94229.53;;;38.02;20.69
73332;BME280;61560;33.718;73.040;2023-05-23T07:38:14;94235.94;;;37.71;20.18
73332;BME280;61560;33.718;73.040;2023-05-23T07:40:43;94236.00;;;37.43;21.07
73332;BME280;61560;33.718;73.040;2023-05-23T07:43:10;94230.44;;;37.26;22.22
73332;BME280;61560;33.718;73.040;2023-05-23T07:45:36;94233.03;;;37.12;26.20
73332;BME280;61560;33.718;73.040;2023-05-23T07:48:04;94217.53;;;36.86;29.38
73332;BME280;61560;33.718;73.040;2023-05-23T07:50:31;94209.56;;;36.75;29.15
73332;BME280;61560;33.718;73.040;2023-05-23T07:52:59;94221.13;;;36.68;28.02
73332;BME280;61560;33.718;73.040;2023-05-23T07:55:29;94225.19;;;36.65;28.12
73332;BME280;61560;33.718;73.040;2023-05-23T07:57:57;94222.78;;;36.61;27.95
73332;BME280;61560;33.718;73.040;2023-05-23T08:00:26;94217.22;;;36.73;26.35
73332;BME280;61560;33.718;73.040;2023-05-23T08:03:00;94204.31;;;36.81;26.41
73332;BME280;61560;33.718;73.040;2023-05-23T08:05:33;94200.25;;;37.13;25.84
73332;BME280;61560;33.718;73.040;2023-05-23T08:08:00;94193.47;;;37.37;24.59
73332;BME280;61560;33.718;73.040;2023-05-23T08:10:27;94188.88;;;37.63;23.72
73332;BME280;61560;33.718;73.040;2023-05-23T08:13:02;94186.09;;;37.84;22.71
73332;BME280;61560;33.718;73.040;2023-05-23T08:15:37;94188.88;;;38.03;22.17
73332;BME280;61560;33.718;73.040;2023-05-23T08:18:13;94184.84;;;37.97;22.29
73332;BME280;61560;33.718;73.040;2023-05-23T08:20:43;94174.06;;;37.86;21.77
73332;BME280;61560;33.718;73.040;2023-05-23T08:23:11;94163.25;;;37.74;21.77
73332;BME280;61560;33.718;73.040;2023-05-23T08:25:39;94159.75;;;37.86;22.43
73332;BME280;61560;33.718;73.040;2023-05-23T08:28:06;94164.00;;;38.06;21.84
73332;BME280;61560;33.718;73.040;2023-05-23T08:30:43;94151.88;;;38.26;21.94
73332;BME280;61560;33.718;73.040;2023-05-23T08:33:10;94155.38;;;38.15;21.41
73332;BME280;61560;33.718;73.040;2023-05-23T08:35:39;94141.25;;;38.08;21.59
73332;BME280;61560;33.718;73.040;2023-05-23T08:38:09;94146.00;;;38.24;21.65
73332;BME280;61560;33.718;73.040;2023-05-23T08:40:47;94127.28;;;38.33;20.56
73332;BME280;61560;33.718;73.040;2023-05-23T08:43:15;94143.16;;;38.45;20.74
73332;BME280;61560;33.718;73.040;2023-05-23T08:45:42;94131.34;;;38.51;21.11
73332;BME280;61560;33.718;73.040;2023-05-23T08:48:12;94129.78;;;38.60;20.05
73332;BME280;61560;33.718;73.040;2023-05-23T08:50:47;94129.16;;;38.61;19.83
73332;BME280;61560;33.718;73.040;2023-05-23T08:53:20;94126.03;;;38.57;20.35
73332;BME280;61560;33.718;73.040;2023-05-23T08:55:56;94120.25;;;38.45;20.21
73332;BME280;61560;33.718;73.040;2023-05-23T08:58:36;94133.00;;;38.33;21.24
73332;BME280;61560;33.718;73.040;2023-05-23T09:01:04;94130.97;;;38.14;20.61
73332;BME280;61560;33.718;73.040;2023-05-23T09:03:32;94128.94;;;38.05;20.70
73332;BME280;61560;33.718;73.040;2023-05-23T09:06:09;94138.47;;;37.98;20.78
73332;BME280;61560;33.718;73.040;2023-05-23T09:08:38;94140.91;;;37.92;21.38
73332;BME280;61560;33.718;73.040;2023-05-23T09:11:05;94139.63;;;37.74;21.85
73332;BME280;61560;33.718;73.040;2023-05-23T09:13:36;94141.59;;;37.71;22.08
73332;BME280;61560;33.718;73.040;2023-05-23T09:16:09;94148.56;;;37.59;21.77
73332;BME280;61560;33.718;73.040;2023-05-23T09:18:47;94141.22;;;37.46;22.41
73332;BME280;61560;33.718;73.040;2023-05-23T09:21:16;94143.25;;;37.34;22.15
73332;BME280;61560;33.718;73.040;2023-05-23T09:23:55;94149.88;;;37.18;22.85
73332;BME280;61560;33.718;73.040;2023-05-23T09:26:23;94147.94;;;37.11;22.24
73332;BME280;61560;33.718;73.040;2023-05-23T09:28:51;94166.44;;;37.10;22.45
73332;BME280;61560;33.718;73.040;2023-05-23T09:31:25;94160.56;;;37.08;22.82
73332;BME280;61560;33.718;73.040;2023-05-23T09:33:57;94159.69;;;36.95;23.35
73332;BME280;61560;33.718;73.040;2023-05-23T09:36:28;94168.84;;;36.84;23.56
73332;BME280;61560;33.718;73.040;2023-05-23T09:39:04;94167.94;;;36.72;24.17
73332;BME280;61560;33.718;73.040;2023-05-23T09:41:34;94154.41;;;36.54;24.14
73332;BME280;61560;33.718;73.040;2023-05-23T09:44:06;94162.53;;;36.48;24.48
73332;BME280;61560;33.718;73.040;2023-05-23T09:46:34;94156.66;;;36.46;24.29
73332;BME280;61560;33.718;73.040;2023-05-23T09:49:14;94149.78;;;36.49;24.71
73332;BME280;61560;33.718;73.040;2023-05-23T09:51:59;94148.88;;;36.65;24.54
73332;BME280;61560;33.718;73.040;2023-05-23T09:54:27;94150.66;;;36.80;24.61
73332;BME280;61560;33.718;73.040;2023-05-23T09:56:54;94142.25;;;36.91;23.67
73332;BME280;61560;33.718;73.040;2023-05-23T11:01:44;94012.59;;;36.75;22.60
73332;BME280;61560;33.718;73.040;2023-05-23T11:04:11;94020.53;;;36.86;22.67
73332;BME280;61560;33.718;73.040;2023-05-23T11:06:43;94015.72;;;36.89;22.41
73332;BME280;61560;33.718;73.040;2023-05-23T11:09:13;94022.34;;;36.91;22.25
73332;BME280;61560;33.718;73.040;2023-05-23T11:12:02;94019.78;;;36.86;22.98
73332;BME280;61560;33.718;73.040;2023-05-23T11:14:41;94024.31;;;36.79;22.08
73332;BME280;61560;33.718;73.040;2023-05-23T11:17:30;94016.78;;;36.74;22.68
73332;BME280;61560;33.718;73.040;2023-05-23T11:20:03;94015.94;;;36.72;22.51
73332;BME280;61560;33.718;73.040;2023-05-23T11:22:34;94017.88;;;36.69;22.54
73332;BME280;61560;33.718;73.040;2023-05-23T11:25:06;94010.66;;;36.68;22.71
73332;BME280;61560;33.718;73.040;2023-05-23T11:27:37;94006.50;;;36.60;22.31
73332;BME280;61560;33.718;73.040;2023-05-23T11:30:10;94012.03;;;36.58;22.45
73332;BME280;61560;33.718;73.040;2023-05-23T11:32:41;94011.59;;;36.52;22.55
73332;BME280;61560;33.718;73.040;2023-05-23T11:35:11;94006.97;;;36.47;22.20
73332;BME280;61560;33.718;73.040;2023-05-23T11:37:38;94016.56;;;36.42;22.31
73332;BME280;61560;33.718;73.040;2023-05-23T11:40:28;94016.56;;;36.32;22.00
73332;BME280;61560;33.718;73.040;2023-05-23T11:42:58;94020.78;;;36.22;22.61
73332;BME280;61560;33.718;73.040;2023-05-23T11:45:26;94015.09;;;36.12;22.78
73332;BME280;61560;33.718;73.040;2023-05-23T11:47:54;94022.59;;;36.07;22.80
73332;BME280;61560;33.718;73.040;2023-05-23T11:50:21;94014.19;;;36.00;22.68
73332;BME280;61560;33.718;73.040;2023-05-23T11:52:50;94015.03;;;35.93;22.79
73332;BME280;61560;33.718;73.040;2023-05-23T11:55:20;94004.41;;;35.84;22.98
73332;BME280;61560;33.718;73.040;2023-05-23T11:57:49;94009.78;;;35.80;23.42
73332;BME280;61560;33.718;73.040;2023-05-23T12:00:18;93999.44;;;35.65;23.20
73332;BME280;61560;33.718;73.040;2023-05-23T12:02:45;94000.00;;;35.64;23.30
73332;BME280;61560;33.718;73.040;2023-05-23T12:05:15;94002.72;;;35.62;23.53
73332;BME280;61560;33.718;73.040;2023-05-23T12:07:47;94000.75;;;35.55;23.79
73332;BME280;61560;33.718;73.040;2023-05-23T12:10:15;93993.50;;;35.44;24.19
73332;BME280;61560;33.718;73.040;2023-05-23T12:12:43;93991.28;;;35.42;24.62
73332;BME280;61560;33.718;73.040;2023-05-23T12:15:13;93992.44;;;35.39;24.54
73332;BME280;61560;33.718;73.040;2023-05-23T12:17:44;93997.53;;;35.41;24.36
73332;BME280;61560;33.718;73.040;2023-05-23T12:20:12;93997.69;;;35.33;24.90
73332;BME280;61560;33.718;73.040;2023-05-23T12:22:40;94004.41;;;35.28;24.72
73332;BME280;61560;33.718;73.040;2023-05-23T12:25:08;94015.34;;;35.22;24.70
73332;BME280;61560;33.718;73.040;2023-05-23T12:27:40;94015.63;;;35.17;25.60
73332;BME280;61560;33.718;73.040;2023-05-23T12:30:13;94016.66;;;35.12;25.21
73332;BME280;61560;33.718;73.040;2023-05-23T12:32:43;94033.69;;;35.02;25.78
73332;BME280;61560;33.718;73.040;2023-05-23T12:35:12;94045.94;;;34.95;26.95
73332;BME280;61560;33.718;73.040;2023-05-23T12:37:48;94051.88;;;34.90;26.37
73332;BME280;61560;33.718;73.040;2023-05-23T12:40:17;94065.94;;;34.88;26.60
73332;BME280;61560;33.718;73.040;2023-05-23T12:42:49;94055.44;;;34.81;26.56
73332;BME280;61560;33.718;73.040;2023-05-23T12:45:21;94048.03;;;34.68;25.98
73332;BME280;61560;33.718;73.040;2023-05-23T12:47:49;94045.16;;;34.58;26.70
73332;BME280;61560;33.718;73.040;2023-05-23T12:50:16;94047.72;;;34.47;27.32
73332;BME280;61560;33.718;73.040;2023-05-23T12:52:43;94035.81;;;34.31;27.67
73332;BME280;61560;33.718;73.040;2023-05-23T12:55:10;94027.19;;;34.22;27.26
73332;BME280;61560;33.718;73.040;2023-05-23T12:57:38;94019.75;;;33.92;28.03
73332;BME280;61560;33.718;73.040;2023-05-23T13:00:06;94009.56;;;33.72;28.32
73332;BME280;61560;33.718;73.040;2023-05-23T13:02:33;93998.38;;;33.74;28.51
73332;BME280;61560;33.718;73.040;2023-05-23T13:05:00;93995.69;;;33.59;29.40
73332;BME280;61560;33.718;73.040;2023-05-23T13:07:27;93990.72;;;33.25;30.52
73332;BME280;61560;33.718;73.040;2023-05-23T13:09:56;93990.66;;;33.08;32.97
73332;BME280;61560;33.718;73.040;2023-05-23T13:12:25;93999.94;;;32.76;33.39
73332;BME280;61560;33.718;73.040;2023-05-23T13:14:52;94002.09;;;32.68;33.02
73332;BME280;61560;33.718;73.040;2023-05-23T13:17:19;93999.38;;;32.53;32.09
73332;BME280;61560;33.718;73.040;2023-05-23T13:19:46;94000.28;;;32.56;31.58
73332;BME280;61560;33.718;73.040;2023-05-23T13:22:13;94002.78;;;32.52;31.72
73332;BME280;61560;33.718;73.040;2023-05-23T13:24:40;93989.88;;;32.58;30.99
73332;BME280;61560;33.718;73.040;2023-05-23T13:27:09;93993.81;;;32.63;30.78
73332;BME280;61560;33.718;73.040;2023-05-23T13:29:36;93993.28;;;32.57;30.39
73332;BME280;61560;33.718;73.040;2023-05-23T13:32:05;94000.03;;;32.69;30.09
73332;BME280;61560;33.718;73.040;2023-05-23T13:34:32;93997.94;;;32.69;29.81
73332;BME280;61560;33.718;73.040;2023-05-23T13:37:02;94002.28;;;32.70;29.39
73332;BME280;61560;33.718;73.040;2023-05-23T13:39:30;94004.72;;;32.74;29.24
73332;BME280;61560;33.718;73.040;2023-05-23T13:41:58;94006.81;;;32.73;29.07
73332;BME280;61560;33.718;73.040;2023-05-23T13:44:24;94004.47;;;32.79;29.54
73332;BME280;61560;33.718;73.040;2023-05-23T13:46:52;94002.16;;;32.85;29.22
73332;BME280;61560;33.718;73.040;2023-05-23T13:49:19;94005.19;;;32.87;28.59
73332;BME280;61560;33.718;73.040;2023-05-23T13:51:46;94000.03;;;32.93;28.71
73332;BME280;61560;33.718;73.040;2023-05-23T13:54:13;94001.94;;;32.91;28.18
73332;BME280;61560;33.718;73.040;2023-05-23T13:56:41;93991.75;;;32.88;28.29
73332;BME280;61560;33.718;73.040;2023-05-23T13:59:08;93994.06;;;32.82;28.95
73332;BME280;61560;33.718;73.040;2023-05-23T14:01:36;93999.75;;;32.82;28.46
73332;BME280;61560;33.718;73.040;2023-05-23T14:04:03;94003.38;;;32.75;28.21
73332;BME280;61560;33.718;73.040;2023-05-23T14:06:30;94007.91;;;32.78;29.36
73332;BME280;61560;33.718;73.040;2023-05-23T14:08:58;94014.50;;;32.80;28.97
73332;BME280;61560;33.718;73.040;2023-05-23T14:11:25;94008.28;;;32.74;29.44
73332;BME280;61560;33.718;73.040;2023-05-23T14:13:51;94013.97;;;32.74;30.66